Izumo Princess — SXMB — position and weather

sailwx.info

Track history (hours):
 
Tides and Currents Weather Stations Pressure Air Temp Water Temp Dewpoint Dewpoint Depression Visibility Wind Speed Wind Dir Waves Ship Positions

Izumo Princess

Last reported at 2017-Apr-27 08:40 UTC. Time now 2017-Apr-27 16:54 UTC.
Position N 39°54' E 025°32'.

Length 229 m; draft 8 m.

Type: Tanker. MMSI: 240611000.

Date/timePositionNaut miles runAvg speedWind from/ knotsBaromVisibWave heightAir tempDewpointWater temp
2017-Apr-27 08:40N 39°54' E 025°32'0 0.0
2017-Apr-27 01:58N 39°54' E 025°32'0 0.0
2017-Apr-27 00:28N 39°54' E 025°32'0 0.1
2017-Apr-26 23:58N 39°54' E 025°32'0 0.0
2017-Apr-26 23:19N 39°54' E 025°32'0 0.0
2017-Apr-26 06:34N 39°54' E 025°32'0 0.1
2017-Apr-26 06:25N 39°54' E 025°32'0 0.0
2017-Apr-26 05:22N 39°54' E 025°32'0 0.0
2017-Apr-25 08:07N 39°54' E 025°32'0 0.0
2017-Apr-25 07:58N 39°54' E 025°32'0 0.0
2017-Apr-25 06:49N 39°54' E 025°32'0 0.0
2017-Apr-25 06:04N 39°54' E 025°32'0 0.0
2017-Apr-25 05:46N 39°54' E 025°32'0 0.0
2017-Apr-25 04:58N 39°54' E 025°32'0 0.0
2017-Apr-25 04:25N 39°54' E 025°32'0 0.1
2017-Apr-25 03:58N 39°53' E 025°32'0 0.0
2017-Apr-25 03:25N 39°53' E 025°32'0 0.1
2017-Apr-25 02:58N 39°53' E 025°32'0 0.0
2017-Apr-25 02:28N 39°53' E 025°32'  
2017-Apr-20 13:49N 40°55' E 028°51'2 1.9
2017-Apr-20 12:32N 40°57' E 028°53'0 0.3
2017-Apr-20 12:14N 40°57' E 028°53'0 0.1
2017-Apr-20 11:56N 40°57' E 028°53'0 0.0
2017-Apr-20 04:32N 40°57' E 028°53'0 0.0
2017-Apr-20 04:20N 40°57' E 028°53'0 0.0
2017-Apr-20 03:56N 40°57' E 028°53'0 0.0
2017-Apr-20 03:08N 40°57' E 028°53'0 0.1
2017-Apr-20 02:50N 40°57' E 028°53'0 0.0
2017-Apr-20 01:38N 40°57' E 028°53'0 0.0
2017-Apr-20 01:20N 40°57' E 028°53'0 0.0
2017-Apr-19 21:44N 40°57' E 028°53'0 0.0
2017-Apr-19 21:26N 40°57' E 028°53'0 0.1
2017-Apr-19 17:56N 40°57' E 028°53'0 0.1
2017-Apr-19 17:26N 40°57' E 028°53'0 0.0
2017-Apr-19 04:38N 40°57' E 028°53'0 0.0
2017-Apr-19 04:20N 40°57' E 028°53'0 0.0
2017-Apr-19 03:14N 40°57' E 028°53'0 0.0
2017-Apr-19 02:44N 40°57' E 028°53'0 0.0
2017-Apr-19 02:26N 40°57' E 028°53'0 0.0
2017-Apr-18 18:56N 40°57' E 028°53'0 0.0
2017-Apr-18 18:20N 40°57' E 028°53'0 0.0
2017-Apr-18 14:57N 40°57' E 028°53'0 0.5
2017-Apr-18 14:29N 40°57' E 028°53'4 4.5
2017-Apr-18 13:31N 40°55' E 028°59'5 8.8
2017-Apr-18 13:00N 40°51' E 029°02'611.9
2017-Apr-18 12:28N 40°47' E 029°08'611.8
2017-Apr-18 12:00N 40°45' E 029°15'4 8.3
2017-Apr-18 11:29N 40°42' E 029°20'1 1.8
2017-Apr-18 10:54N 40°42' E 029°21'0 0.1
2017-Apr-18 10:30N 40°42' E 029°21'0 0.0
2017-Apr-18 09:36N 40°42' E 029°21'0 0.0
2017-Apr-18 09:06N 40°42' E 029°21'0 0.1
2017-Apr-18 09:00N 40°42' E 029°21'0 0.0
2017-Apr-18 08:24N 40°42' E 029°21'0 0.0
2017-Apr-18 06:48N 40°42' E 029°21'0 0.0
2017-Apr-18 05:12N 40°42' E 029°21'0 0.2
2017-Apr-18 05:00N 40°42' E 029°21'0 0.0
2017-Apr-18 03:24N 40°42' E 029°21'0 0.2
2017-Apr-18 02:54N 40°42' E 029°21'0 0.0
2017-Apr-18 02:30N 40°42' E 029°21'0 0.1
2017-Apr-18 02:00N 40°42' E 029°21'0 0.0
2017-Apr-17 23:48N 40°42' E 029°21'0 0.0
2017-Apr-17 23:24N 40°42' E 029°21'0 0.0
2017-Apr-17 22:54N 40°42' E 029°21'0 0.0
2017-Apr-17 22:24N 40°42' E 029°21'0 0.0
2017-Apr-17 22:00N 40°42' E 029°21'0 0.0
2017-Apr-17 20:24N 40°42' E 029°21'0 0.0
2017-Apr-17 20:00N 40°42' E 029°21'0 0.0
2017-Apr-17 19:30N 40°42' E 029°21'0 0.0
2017-Apr-17 18:42N 40°42' E 029°21'0 0.1
2017-Apr-17 18:12N 40°42' E 029°21'0 0.1
2017-Apr-17 17:24N 40°42' E 029°21'0 0.0
2017-Apr-17 16:06N 40°42' E 029°21'0 0.1
2017-Apr-17 13:48N 40°42' E 029°21'0 0.0
2017-Apr-17 13:18N 40°42' E 029°21'0 0.0
2017-Apr-17 12:48N 40°42' E 029°21'0 0.0
2017-Apr-17 12:24N 40°42' E 029°21'0 0.0
2017-Apr-17 11:54N 40°42' E 029°21'0 0.0
2017-Apr-17 11:30N 40°42' E 029°21'0 0.1
2017-Apr-17 11:00N 40°42' E 029°21'0 0.0
2017-Apr-17 10:18N 40°42' E 029°21'0 0.0
2017-Apr-17 10:00N 40°42' E 029°21'0 0.1
2017-Apr-17 09:18N 40°42' E 029°21'0 0.1
2017-Apr-17 09:00N 40°42' E 029°21'  
Track history (hours):
 
Tides and Currents Weather Stations Pressure Air Temp Water Temp Dewpoint Dewpoint Depression Visibility Wind Speed Wind Dir Waves Ship Positions

Izumo Princess

Last reported at 2017-Apr-27 08:40 UTC. Time now 2017-Apr-27 16:54 UTC.
Position N 39°54' E 025°32'.

Length 229 m; draft 8 m.

Type: Tanker. MMSI: 240611000.

Date/timePositionNaut miles runAvg speedWind from/ knotsBaromVisibWave heightAir tempDewpointWater temp
2017-Apr-27 08:40N 39°54' E 025°32'0 0.0
2017-Apr-27 01:58N 39°54' E 025°32'0 0.0
2017-Apr-27 00:28N 39°54' E 025°32'0 0.1
2017-Apr-26 23:58N 39°54' E 025°32'0 0.0
2017-Apr-26 23:19N 39°54' E 025°32'0 0.0
2017-Apr-26 06:34N 39°54' E 025°32'0 0.1
2017-Apr-26 06:25N 39°54' E 025°32'0 0.0
2017-Apr-26 05:22N 39°54' E 025°32'0 0.0
2017-Apr-25 08:07N 39°54' E 025°32'0 0.0
2017-Apr-25 07:58N 39°54' E 025°32'0 0.0
2017-Apr-25 06:49N 39°54' E 025°32'0 0.0
2017-Apr-25 06:04N 39°54' E 025°32'0 0.0
2017-Apr-25 05:46N 39°54' E 025°32'0 0.0
2017-Apr-25 04:58N 39°54' E 025°32'0 0.0
2017-Apr-25 04:25N 39°54' E 025°32'0 0.1
2017-Apr-25 03:58N 39°53' E 025°32'0 0.0
2017-Apr-25 03:25N 39°53' E 025°32'0 0.1
2017-Apr-25 02:58N 39°53' E 025°32'0 0.0
2017-Apr-25 02:28N 39°53' E 025°32'  
2017-Apr-20 13:49N 40°55' E 028°51'2 1.9
2017-Apr-20 12:32N 40°57' E 028°53'0 0.3
2017-Apr-20 12:14N 40°57' E 028°53'0 0.1
2017-Apr-20 11:56N 40°57' E 028°53'0 0.0
2017-Apr-20 04:32N 40°57' E 028°53'0 0.0
2017-Apr-20 04:20N 40°57' E 028°53'0 0.0
2017-Apr-20 03:56N 40°57' E 028°53'0 0.0
2017-Apr-20 03:08N 40°57' E 028°53'0 0.1
2017-Apr-20 02:50N 40°57' E 028°53'0 0.0
2017-Apr-20 01:38N 40°57' E 028°53'0 0.0
2017-Apr-20 01:20N 40°57' E 028°53'0 0.0
2017-Apr-19 21:44N 40°57' E 028°53'0 0.0
2017-Apr-19 21:26N 40°57' E 028°53'0 0.1
2017-Apr-19 17:56N 40°57' E 028°53'0 0.1
2017-Apr-19 17:26N 40°57' E 028°53'0 0.0
2017-Apr-19 04:38N 40°57' E 028°53'0 0.0
2017-Apr-19 04:20N 40°57' E 028°53'0 0.0
2017-Apr-19 03:14N 40°57' E 028°53'0 0.0
2017-Apr-19 02:44N 40°57' E 028°53'0 0.0
2017-Apr-19 02:26N 40°57' E 028°53'0 0.0
2017-Apr-18 18:56N 40°57' E 028°53'0 0.0
2017-Apr-18 18:20N 40°57' E 028°53'0 0.0
2017-Apr-18 14:57N 40°57' E 028°53'0 0.5
2017-Apr-18 14:29N 40°57' E 028°53'4 4.5
2017-Apr-18 13:31N 40°55' E 028°59'5 8.8
2017-Apr-18 13:00N 40°51' E 029°02'611.9
2017-Apr-18 12:28N 40°47' E 029°08'611.8
2017-Apr-18 12:00N 40°45' E 029°15'4 8.3
2017-Apr-18 11:29N 40°42' E 029°20'1 1.8
2017-Apr-18 10:54N 40°42' E 029°21'0 0.1
2017-Apr-18 10:30N 40°42' E 029°21'0 0.0
2017-Apr-18 09:36N 40°42' E 029°21'0 0.0
2017-Apr-18 09:06N 40°42' E 029°21'0 0.1
2017-Apr-18 09:00N 40°42' E 029°21'0 0.0
2017-Apr-18 08:24N 40°42' E 029°21'0 0.0
2017-Apr-18 06:48N 40°42' E 029°21'0 0.0
2017-Apr-18 05:12N 40°42' E 029°21'0 0.2
2017-Apr-18 05:00N 40°42' E 029°21'0 0.0
2017-Apr-18 03:24N 40°42' E 029°21'0 0.2
2017-Apr-18 02:54N 40°42' E 029°21'0 0.0
2017-Apr-18 02:30N 40°42' E 029°21'0 0.1
2017-Apr-18 02:00N 40°42' E 029°21'0 0.0
2017-Apr-17 23:48N 40°42' E 029°21'0 0.0
2017-Apr-17 23:24N 40°42' E 029°21'0 0.0
2017-Apr-17 22:54N 40°42' E 029°21'0 0.0
2017-Apr-17 22:24N 40°42' E 029°21'0 0.0
2017-Apr-17 22:00N 40°42' E 029°21'0 0.0
2017-Apr-17 20:24N 40°42' E 029°21'0 0.0
2017-Apr-17 20:00N 40°42' E 029°21'0 0.0
2017-Apr-17 19:30N 40°42' E 029°21'0 0.0
2017-Apr-17 18:42N 40°42' E 029°21'0 0.1
2017-Apr-17 18:12N 40°42' E 029°21'0 0.1
2017-Apr-17 17:24N 40°42' E 029°21'0 0.0
2017-Apr-17 16:06N 40°42' E 029°21'0 0.1
2017-Apr-17 13:48N 40°42' E 029°21'0 0.0
2017-Apr-17 13:18N 40°42' E 029°21'0 0.0
2017-Apr-17 12:48N 40°42' E 029°21'0 0.0
2017-Apr-17 12:24N 40°42' E 029°21'0 0.0
2017-Apr-17 11:54N 40°42' E 029°21'0 0.0
2017-Apr-17 11:30N 40°42' E 029°21'0 0.1
2017-Apr-17 11:00N 40°42' E 029°21'0 0.0
2017-Apr-17 10:18N 40°42' E 029°21'0 0.0
2017-Apr-17 10:00N 40°42' E 029°21'0 0.1
2017-Apr-17 09:18N 40°42' E 029°21'0 0.1
2017-Apr-17 09:00N 40°42' E 029°21'  

Dump ship's entire track history